createdAt,value
2022-09-25T00:02:35.895Z,100.00
2022-09-25T00:07:42.356Z,100.00
2022-09-25T00:12:47.266Z,100.00
2022-09-25T00:17:52.212Z,100.00
2022-09-25T00:23:00.081Z,100.00
2022-09-25T00:28:04.451Z,100.00
2022-09-25T00:33:08.949Z,100.00
2022-09-25T00:38:15.181Z,100.00
2022-09-25T00:43:37.511Z,100.00
2022-09-25T00:48:50.956Z,100.00
2022-09-25T00:54:00.219Z,100.00
2022-09-25T00:59:04.731Z,100.00
2022-09-25T01:04:13.755Z,100.00
2022-09-25T01:09:20.330Z,100.00
2022-09-25T01:14:24.623Z,100.00
2022-09-25T01:19:46.246Z,100.00
2022-09-25T01:25:12.649Z,100.00
2022-09-25T01:30:20.976Z,100.00
2022-09-25T01:35:38.457Z,100.00
2022-09-25T01:40:50.064Z,100.00
2022-09-25T01:45:59.538Z,100.00
2022-09-25T01:51:07.395Z,100.00
2022-09-25T01:56:23.618Z,100.00
2022-09-25T02:01:36.521Z,100.00
2022-09-25T02:06:45.862Z,100.00
2022-09-25T02:11:58.215Z,100.00
2022-09-25T02:17:10.885Z,100.00
2022-09-25T02:22:21.460Z,100.00
2022-09-25T02:27:29.821Z,100.00
2022-09-25T02:32:35.980Z,100.00
2022-09-25T02:37:40.564Z,100.00
2022-09-25T02:42:51.176Z,100.00
2022-09-25T02:48:09.727Z,100.00
2022-09-25T02:53:22.604Z,100.00
2022-09-25T02:58:31.887Z,100.00
2022-09-25T03:03:40.846Z,100.00
2022-09-25T03:08:52.629Z,100.00
2022-09-25T03:13:58.907Z,100.00
2022-09-25T03:19:05.646Z,100.00
2022-09-25T03:24:11.665Z,100.00
2022-09-25T03:29:17.646Z,100.00
2022-09-25T03:34:26.748Z,100.00
2022-09-25T03:39:31.283Z,100.00
2022-09-25T03:44:36.122Z,100.00
2022-09-25T03:49:41.864Z,100.00
2022-09-25T03:54:46.134Z,100.00
2022-09-25T03:59:51.158Z,100.00
2022-09-25T04:04:57.084Z,100.00
2022-09-25T04:10:01.800Z,100.00
2022-09-25T04:15:09.761Z,100.00
2022-09-25T04:20:15.971Z,100.00
2022-09-25T04:25:24.512Z,100.00
2022-09-25T04:30:31.272Z,100.00
2022-09-25T04:35:37.341Z,100.00
2022-09-25T04:40:42.238Z,100.00
2022-09-25T04:45:48.141Z,100.00
2022-09-25T04:50:54.738Z,100.00
2022-09-25T04:56:03.521Z,100.00
2022-09-25T05:01:10.133Z,100.00
2022-09-25T05:06:17.197Z,100.00
2022-09-25T05:11:21.988Z,100.00
2022-09-25T05:16:28.217Z,100.00
2022-09-25T05:21:34.220Z,100.00
2022-09-25T05:26:39.619Z,100.00
2022-09-25T05:31:47.065Z,100.00
2022-09-25T05:36:54.587Z,100.00
2022-09-25T05:41:59.621Z,100.00
2022-09-25T05:47:04.337Z,100.00
2022-09-25T05:52:11.226Z,100.00
2022-09-25T05:57:16.271Z,100.00
2022-09-25T06:02:20.673Z,100.00
2022-09-25T06:07:26.475Z,100.00
2022-09-25T06:12:31.411Z,100.00
2022-09-25T06:17:36.082Z,100.00
2022-09-25T06:22:42.887Z,100.00
2022-09-25T06:27:47.990Z,100.00
2022-09-25T06:33:00.158Z,100.00
2022-09-25T06:38:06.869Z,100.00
2022-09-25T06:43:14.322Z,100.00
2022-09-25T06:48:22.200Z,100.00
2022-09-25T06:53:29.176Z,100.00
2022-09-25T06:58:33.326Z,100.00
2022-09-25T07:03:47.105Z,100.00
2022-09-25T07:08:56.517Z,100.00
2022-09-25T07:14:01.506Z,100.00
2022-09-25T07:19:06.375Z,100.00
2022-09-25T07:24:12.738Z,100.00
2022-09-25T07:29:36.117Z,100.00
2022-09-25T07:34:40.216Z,100.00
2022-09-25T07:39:45.491Z,100.00
2022-09-25T07:44:54.835Z,100.00
2022-09-25T07:50:00.339Z,100.00
2022-09-25T07:55:18.507Z,100.00
2022-09-25T08:00:59.155Z,100.00
2022-09-25T08:06:29.572Z,100.00
2022-09-25T08:11:40.640Z,100.00
2022-09-25T08:16:56.087Z,100.00
2022-09-25T08:22:00.415Z,100.00
2022-09-25T08:27:21.867Z,100.00
2022-09-25T08:32:25.460Z,100.00
2022-09-25T08:37:29.297Z,100.00
2022-09-25T08:42:38.122Z,100.00
2022-09-25T08:47:59.760Z,100.00
2022-09-25T08:53:08.852Z,100.00
2022-09-25T08:58:16.800Z,100.00
2022-09-25T09:03:21.588Z,100.00
2022-09-25T09:08:29.748Z,100.00
2022-09-25T09:13:42.492Z,100.00
2022-09-25T09:18:46.257Z,100.00
2022-09-25T09:23:58.294Z,100.00
2022-09-25T09:29:25.947Z,100.00
2022-09-25T09:35:04.686Z,100.00
2022-09-25T09:40:23.376Z,100.00
2022-09-25T09:45:35.831Z,100.00
2022-09-25T09:50:51.391Z,100.00
2022-09-25T09:56:01.676Z,100.00
2022-09-25T10:01:29.162Z,100.00
2022-09-25T10:06:34.869Z,100.00
2022-09-25T10:11:41.048Z,100.00
2022-09-25T10:16:46.004Z,100.00
2022-09-25T10:21:53.539Z,100.00
2022-09-25T10:26:56.896Z,100.00
2022-09-25T10:32:05.779Z,100.00
2022-09-25T10:37:20.306Z,100.00
2022-09-25T10:42:40.876Z,100.00
2022-09-25T10:48:08.442Z,100.00
2022-09-25T10:53:30.451Z,100.00
2022-09-25T10:58:39.373Z,100.00
2022-09-25T11:03:51.420Z,100.00
2022-09-25T11:09:27.578Z,100.00
2022-09-25T11:14:33.156Z,100.00
2022-09-25T11:19:41.689Z,100.00
2022-09-25T11:25:07.583Z,97.88
2022-09-25T11:30:16.687Z,97.99
2022-09-25T11:35:29.669Z,95.66
2022-09-25T11:41:02.368Z,91.21
2022-09-25T11:46:14.543Z,93.65
2022-09-25T11:51:36.138Z,93.91
2022-09-25T11:56:48.270Z,96.51
2022-09-25T12:01:59.016Z,97.57
2022-09-25T12:07:31.188Z,99.88
2022-09-25T12:12:46.000Z,97.55
2022-09-25T12:18:00.714Z,94.32
2022-09-25T12:23:16.134Z,94.39
2022-09-25T12:28:28.860Z,95.22
2022-09-25T12:33:39.633Z,98.23
2022-09-25T12:38:49.094Z,100.00
2022-09-25T12:43:57.716Z,100.00
2022-09-25T12:49:09.551Z,100.00
2022-09-25T12:54:28.241Z,100.00
2022-09-25T12:59:41.510Z,100.00
2022-09-25T13:05:00.734Z,100.00
2022-09-25T13:10:28.196Z,100.00
2022-09-25T13:15:36.601Z,100.00
2022-09-25T13:20:50.552Z,100.00
2022-09-25T13:26:01.666Z,100.00
2022-09-25T13:31:09.993Z,100.00
2022-09-25T13:36:33.955Z,100.00
2022-09-25T13:41:50.479Z,100.00
2022-09-25T13:47:31.682Z,100.00
2022-09-25T13:53:20.642Z,100.00
2022-09-25T13:58:28.495Z,100.00
2022-09-25T14:03:44.314Z,100.00
2022-09-25T14:08:53.180Z,100.00
2022-09-25T14:14:08.568Z,100.00
2022-09-25T14:19:23.475Z,100.00
2022-09-25T14:24:45.425Z,100.00
2022-09-25T14:29:50.596Z,100.00
2022-09-25T14:35:22.090Z,100.00
2022-09-25T14:40:33.741Z,100.00
2022-09-25T14:45:57.248Z,100.00
2022-09-25T14:51:04.747Z,100.00
2022-09-25T14:56:14.880Z,100.00
2022-09-25T15:01:24.721Z,100.00
2022-09-25T15:06:30.369Z,100.00
2022-09-25T15:11:41.779Z,100.00
2022-09-25T15:17:05.819Z,100.00
2022-09-25T15:22:11.462Z,100.00
2022-09-25T15:27:17.155Z,100.00
2022-09-25T15:32:26.937Z,100.00
2022-09-25T15:37:31.101Z,100.00
2022-09-25T15:42:34.588Z,100.00
2022-09-25T15:47:54.795Z,100.00
2022-09-25T15:53:01.487Z,100.00
2022-09-25T15:58:08.337Z,100.00
2022-09-25T16:03:35.349Z,100.00
2022-09-25T16:08:38.618Z,100.00
2022-09-25T16:13:44.278Z,100.00
2022-09-25T16:18:49.559Z,100.00
2022-09-25T16:23:56.562Z,100.00
2022-09-25T16:29:10.122Z,100.00
2022-09-25T16:34:26.312Z,100.00
2022-09-25T16:39:32.158Z,100.00
2022-09-25T16:44:45.253Z,100.00
2022-09-25T16:49:50.239Z,100.00
2022-09-25T16:54:56.982Z,100.00
2022-09-25T17:00:01.664Z,100.00
2022-09-25T17:05:12.134Z,100.00
2022-09-25T17:10:17.099Z,100.00
2022-09-25T17:15:24.630Z,100.00
2022-09-25T17:20:31.394Z,100.00
2022-09-25T17:25:41.402Z,100.00
2022-09-25T17:30:45.968Z,100.00
2022-09-25T17:35:54.125Z,100.00
2022-09-25T17:41:03.182Z,100.00
2022-09-25T17:46:10.410Z,100.00
2022-09-25T17:51:18.295Z,100.00
2022-09-25T17:56:22.166Z,100.00
2022-09-25T18:01:28.038Z,100.00
2022-09-25T18:06:32.974Z,100.00
2022-09-25T18:11:36.533Z,100.00
2022-09-25T18:16:55.771Z,100.00
2022-09-25T18:22:18.359Z,100.00
2022-09-25T18:27:22.022Z,100.00
2022-09-25T18:32:38.050Z,100.00
2022-09-25T18:37:44.264Z,100.00
2022-09-25T18:42:48.511Z,100.00
2022-09-25T18:47:54.558Z,100.00
2022-09-25T18:53:29.643Z,100.00
2022-09-25T18:58:33.969Z,100.00
2022-09-25T19:03:40.896Z,100.00
2022-09-25T19:08:58.038Z,100.00
2022-09-25T19:14:04.832Z,100.00
2022-09-25T19:19:08.749Z,100.00
2022-09-25T19:24:18.825Z,100.00
2022-09-25T19:29:22.782Z,100.00
2022-09-25T19:34:26.567Z,100.00
2022-09-25T19:39:51.259Z,100.00
2022-09-25T19:44:56.545Z,100.00
2022-09-25T19:50:05.845Z,100.00
2022-09-25T19:55:11.023Z,100.00
2022-09-25T20:00:18.229Z,100.00
2022-09-25T20:05:21.852Z,100.00
2022-09-25T20:10:27.258Z,100.00
2022-09-25T20:15:31.630Z,100.00
2022-09-25T20:20:35.918Z,100.00
2022-09-25T20:25:41.479Z,100.00
2022-09-25T20:30:45.062Z,100.00
2022-09-25T20:35:48.609Z,100.00
2022-09-25T20:40:53.716Z,100.00
2022-09-25T20:45:58.492Z,100.00
2022-09-25T20:51:01.957Z,100.00
2022-09-25T20:56:34.529Z,100.00
2022-09-25T21:01:43.488Z,100.00
2022-09-25T21:06:51.256Z,100.00
2022-09-25T21:11:56.458Z,100.00
2022-09-25T21:17:00.068Z,100.00
2022-09-25T21:22:03.708Z,100.00
2022-09-25T21:27:08.568Z,100.00
2022-09-25T21:32:12.063Z,100.00
2022-09-25T21:37:15.437Z,100.00
2022-09-25T21:42:20.899Z,100.00
2022-09-25T21:47:24.512Z,100.00
2022-09-25T21:52:27.864Z,100.00
2022-09-25T21:57:32.874Z,100.00
2022-09-25T22:02:36.279Z,100.00
2022-09-25T22:07:40.524Z,100.00
2022-09-25T22:12:45.192Z,100.00
2022-09-25T22:17:48.583Z,100.00
2022-09-25T22:22:51.866Z,100.00
2022-09-25T22:27:56.558Z,100.00
2022-09-25T22:32:59.837Z,100.00
2022-09-25T22:38:03.418Z,100.00
2022-09-25T22:43:08.173Z,100.00
2022-09-25T22:48:11.557Z,100.00
2022-09-25T22:53:14.842Z,100.00
2022-09-25T22:58:20.434Z,100.00
2022-09-25T23:03:24.862Z,100.00
2022-09-25T23:08:28.691Z,100.00
2022-09-25T23:13:34.379Z,100.00
2022-09-25T23:18:39.073Z,100.00
2022-09-25T23:23:42.385Z,100.00
2022-09-25T23:28:46.996Z,100.00
2022-09-25T23:33:50.375Z,100.00
2022-09-25T23:38:55.709Z,100.00
2022-09-25T23:44:01.675Z,100.00
2022-09-25T23:49:05.844Z,100.00
2022-09-25T23:54:11.121Z,100.00
2022-09-25T23:59:16.163Z,100.00
